Share

Allakaket, AK

8:45 AM AKDT on April 24, 2014 (GMT -0800)
Bettles (PABT) Elev 643 ft | 66.91 °N, 151.53 °W | Change Station

Current weather conditions updated 52 minutes ago

Partly Cloudy
Partly Cloudy
27 °F
Feels Like 20 °F
N
7
Wind Variable Wind from North
Sunrise 5:50 AM
Sunset 10:30 PM
Moon Waning Crescent

Today is forecast to be nearly the same temperature as yesterday.

Pressure 29.80 in
Visibility 10.0 miles
Clouds Few 12000 ft
Windchill 20 °F
Dew Point 13 °F
Humidity 56%
Rainfall 0.00 in
Snow Depth Not available.
UV 0 out of 16
Pollen Not available.
Air Quality Not available.
Flu Activity Sporadic
METAR PABT 241553Z 01006KT 10SM FEW120 M03/M11 A2976 RMK AO2 SLP089 T10281106 PNO

More Conditions Fewer Conditions

Pressure 29.80 in
Visibility 10.0 miles
Clouds Few 12000 ft
Windchill 20 °F
Dew Point 13 °F
Humidity 56%
Rainfall 0.00 in
Snow Depth Not available.
UV 0 out of 16
Pollen Not available.
Air Quality Not available.
Flu Activity Sporadic
METAR PABT 241553Z 01006KT 10SM FEW120 M03/M11 A2976 RMK AO2 SLP089 T10281106 PNO

More Conditions Fewer Conditions

10-Day Weather Forecast

Almanac

Astronomy

Apr. 24, 2014 Rise Set
Actual Time 5:50 AM AKDT 10:30 PM AKDT
Civil Twilight 4:36 AM AKDT 11:45 PM AKDT
Nautical Twilight 2:41 AM AKDT 1:36 AM AKDT
Astronomical Twilight Sun does not rise Sun does not rise
Moon 5:15 AM AKDT 4:00 PM AKDT
Length of Visible Light 19h 08m
Length of Day
16h 39m
Tomorrow will be 7m 47s longer.
Waning Crescent, 24% of the Moon is Illuminated
Today
Waning Crescent
Apr 29
New
May 6
First Quarter
May 14
Full
May 21
Last Quarter

Today's Extremes

State Highs State Lows

Community

  • Sunset at Apalachicola Bay, Florida
    Sunset at Apalachicola Bay, Florida
  • Clouds mov'n in
    Clouds mov'n in
  • Stacked
    Stacked
  • clouds approaching Red Sox Nation
    clouds approaching Red Sox Nation
  • Balance
    Balance

WunderPhotos

Upload Photos

1,704,665 photos uploaded!

Nearby

Snow Depth

Station Depth Elevation
Gobblers Knob 6 in 2030 ft
Coldfoot 21 in 1040 ft
Atigun Pass 37 in 4800 ft
Imnaviat Creek 26 in 3050 ft
Little Chena Ridge 6 in 2000 ft

Coastal Water Temperatures

Place Temperature
No Stations Reporting

Earthquake Activity

City Distance Mag. Time & Date
No recent earthquake activity has been reported nearby.
Minimum magnitude displayed is 2.5.

Nearby Weather Stations

There are no personal weather stations in this area.

What do you think?

We're not finished. Please let us know what you like, what you don't like, and what you are still missing.